Overview Statistics Trail Chart Weather Telemetry Raw packets
 

This is the latest recevied weather packets stored in our database for station/object 9A7DI-13. If no packets are shown the sender has not sent any weather packets the latest 10 day(s).

<< 9 10 11 12 13 14 15 >>
Time Temp. Humidity Pressure Rain* Wind** Luminosity Snow
1788512201 30.56° C 33% 1029.1 hPa - - - -
1788511602 30.56° C 33% 1029.1 hPa - - - -
1788511001 30° C 35% 1029.1 hPa - - - -
1788510401 29.44° C 35% 1029.1 hPa - - - -
1788509802 29.44° C 33% 1029 hPa - - - -
1788509202 29.44° C 34% 1029.2 hPa - - - -
1788508602 28.89° C 35% 1029 hPa - - - -
1788508002 28.89° C 36% 1029.1 hPa - - - -
1788507402 28.33° C 36% 1029 hPa - - - -
1788506802 27.78° C 37% 1028.9 hPa - - - -
1788506202 27.78° C 39% 1028.9 hPa - - - -
1788505602 27.22° C 42% 1029 hPa - - - -
1788505002 26.11° C 47% 1029 hPa - - - -
1788504402 25° C 52% 1028.9 hPa - - - -
1788503802 23.89° C 58% 1029 hPa - - - -
1788503202 22.78° C 59% 1029 hPa - - - -
1788502602 22.22° C 64% 1029.2 hPa - - - -
1788502002 21.11° C 71% 1029.2 hPa - - - -
1788501402 20.56° C 69% 1029.2 hPa - - - -
1788500802 20° C 72% 1029.1 hPa - - - -
1788500202 20° C 71% 1029.1 hPa - - - -
1788499602 18.89° C 74% 1029.2 hPa - - - -
1788499002 18.33° C 76% 1029 hPa - - - -
1788498402 18.33° C 75% 1028.9 hPa - - - -
1788497802 18.33° C 76% 1029 hPa - - - -

* Rain since midnight (hover to see other rain measurements)
** Current wind speed in m/s (hover to see current wind gust speed)